CheckWX is a tool to help pilots better visualize weather data.  It is not intended as a substitute for an official pre-flight weather briefing.

06:46:40 UTC

EDDV METAR
Hannover Airport
Hannover, Germany
Current

27 mins ago

EDDV 220620Z 10010KT CAVOK 11/02 Q1016 NOSIG
Observed
Apr-22 @ 06:20 UTC
Wind
  • 100° at 10 KTS
Visibility
10,000+ meters
Flight Rules
VFR
Cloud Levels
  • Clear skies
Temperature
11°C / 52°F
Dewpoint
C / 36°F
Humidity
54%
Altimeter
30" Hg
Pressure
1015.92 hPa
Previous

57 mins ago

EDDV 220550Z 09008KT CAVOK 10/03 Q1016 NOSIG
Observed
Apr-22 @ 05:50 UTC
Wind
  • 090° at 8 KTS
Visibility
10,000+ meters
Flight Rules
VFR
Cloud Levels
  • Clear skies
Temperature
10°C / 50°F
Dewpoint
C / 37°F
Humidity
62%
Altimeter
30" Hg
Pressure
1015.92 hPa
Previous

1 hour ago

EDDV 220520Z 09008KT CAVOK 08/02 Q1016 NOSIG
Observed
Apr-22 @ 05:20 UTC
Wind
  • 090° at 8 KTS
Visibility
10,000+ meters
Flight Rules
VFR
Cloud Levels
  • Clear skies
Temperature
C / 46°F
Dewpoint
C / 36°F
Humidity
66%
Altimeter
30" Hg
Pressure
1015.92 hPa